createdAt,value
2022-08-05T00:01:36.549Z,5.90
2022-08-05T00:04:19.402Z,5.40
2022-08-05T00:06:51.823Z,6.10
2022-08-05T00:09:20.410Z,5.60
2022-08-05T00:11:55.869Z,5.90
2022-08-05T00:14:29.238Z,6.20
2022-08-05T00:17:01.640Z,6.70
2022-08-05T00:19:33.432Z,6.00
2022-08-05T00:22:11.894Z,5.80
2022-08-05T00:24:42.535Z,5.90
2022-08-05T00:27:16.825Z,5.60
2022-08-05T00:29:45.102Z,5.50
2022-08-05T00:32:15.139Z,5.80
2022-08-05T00:35:04.538Z,5.60
2022-08-05T00:37:50.283Z,5.60
2022-08-05T00:40:27.550Z,5.30
2022-08-05T00:42:59.112Z,4.80
2022-08-05T00:45:38.951Z,5.40
2022-08-05T00:48:18.501Z,5.50
2022-08-05T00:50:56.083Z,5.20
2022-08-05T00:54:00.440Z,5.30
2022-08-05T00:56:12.075Z,5.30
2022-08-05T00:58:40.462Z,5.60
2022-08-05T01:01:13.433Z,5.00
2022-08-05T01:03:42.400Z,5.30
2022-08-05T01:06:15.279Z,5.50
2022-08-05T01:08:44.796Z,5.20
2022-08-05T01:11:33.488Z,5.20
2022-08-05T01:14:31.890Z,5.50
2022-08-05T01:17:11.022Z,5.20
2022-08-05T01:20:09.795Z,5.50
2022-08-05T01:22:51.507Z,5.40
2022-08-05T01:25:39.869Z,5.40
2022-08-05T01:28:28.126Z,4.90
2022-08-05T01:31:12.552Z,5.50
2022-08-05T01:34:02.485Z,5.10
2022-08-05T01:36:36.238Z,4.90
2022-08-05T01:39:12.249Z,5.10
2022-08-05T01:41:44.523Z,5.40
2022-08-05T01:44:14.203Z,4.60
2022-08-05T01:46:46.440Z,4.90
2022-08-05T01:49:24.399Z,5.70
2022-08-05T01:52:02.274Z,4.60
2022-08-05T01:54:53.989Z,6.60
2022-08-05T01:58:12.555Z,4.70
2022-08-05T02:00:18.856Z,5.20
2022-08-05T02:02:57.749Z,5.60
2022-08-05T02:05:30.250Z,4.90
2022-08-05T02:08:02.503Z,5.20
2022-08-05T02:10:36.660Z,5.20
2022-08-05T02:13:16.259Z,5.20
2022-08-05T02:15:54.125Z,5.20
2022-08-05T02:18:34.925Z,5.50
2022-08-05T02:21:16.216Z,5.10
2022-08-05T02:23:48.480Z,5.20
2022-08-05T02:26:53.832Z,5.40
2022-08-05T02:29:58.247Z,5.20
2022-08-05T02:32:19.927Z,4.90
2022-08-05T02:34:54.834Z,5.40
2022-08-05T02:37:24.921Z,5.10
2022-08-05T02:39:54.623Z,5.90
2022-08-05T02:42:25.808Z,5.70
2022-08-05T02:44:57.181Z,5.80
2022-08-05T02:48:06.426Z,5.00
2022-08-05T02:50:18.130Z,5.80
2022-08-05T02:52:46.946Z,5.50
2022-08-05T02:55:17.592Z,6.20
2022-08-05T02:58:09.337Z,5.80
2022-08-05T03:00:41.175Z,6.00
2022-08-05T03:03:20.112Z,7.20
2022-08-05T03:06:55.098Z,6.30
2022-08-05T03:08:42.660Z,6.50
2022-08-05T03:11:54.521Z,5.90
2022-08-05T03:14:07.900Z,6.60
2022-08-05T03:16:35.988Z,7.00
2022-08-05T03:19:16.932Z,7.30
2022-08-05T03:21:48.751Z,7.70
2022-08-05T03:24:26.881Z,6.80
2022-08-05T03:27:00.914Z,6.20
2022-08-05T03:29:44.785Z,6.80
2022-08-05T03:32:19.641Z,6.60
2022-08-05T03:34:50.354Z,7.40
2022-08-05T03:37:21.339Z,6.40
2022-08-05T03:40:01.143Z,6.80
2022-08-05T03:42:32.298Z,6.60
2022-08-05T03:45:22.177Z,7.10
2022-08-05T03:47:51.835Z,7.10
2022-08-05T03:50:29.017Z,6.90
2022-08-05T03:55:52.348Z,7.70
2022-08-05T03:56:35.057Z,6.90
2022-08-05T03:59:10.813Z,7.80
2022-08-05T04:01:42.618Z,7.30
2022-08-05T04:04:21.094Z,7.10
2022-08-05T04:06:51.765Z,7.80
2022-08-05T04:09:26.573Z,7.40
2022-08-05T04:11:56.948Z,7.20
2022-08-05T04:14:30.601Z,7.70
2022-08-05T04:17:00.765Z,6.80
2022-08-05T04:19:30.597Z,6.20
2022-08-05T04:22:08.788Z,7.20
2022-08-05T04:24:44.134Z,6.60
2022-08-05T04:27:13.784Z,5.80
2022-08-05T04:29:43.284Z,6.00
2022-08-05T04:32:11.260Z,6.10
2022-08-05T04:34:43.035Z,6.50
2022-08-05T04:37:11.486Z,6.20
2022-08-05T04:39:40.669Z,6.10
2022-08-05T04:42:09.351Z,6.20
2022-08-05T04:44:37.245Z,6.00
2022-08-05T04:47:08.931Z,6.10
2022-08-05T04:50:03.098Z,6.10
2022-08-05T04:52:28.908Z,6.90
2022-08-05T04:54:56.998Z,6.60
2022-08-05T04:57:28.497Z,6.50
2022-08-05T04:59:58.671Z,6.60
2022-08-05T05:02:41.081Z,6.60
2022-08-05T05:05:16.500Z,6.60
2022-08-05T05:07:56.406Z,6.30
2022-08-05T05:10:33.371Z,6.90
2022-08-05T05:13:04.147Z,6.20
2022-08-05T05:16:00.479Z,6.40
2022-08-05T05:18:28.329Z,5.90
2022-08-05T05:20:56.683Z,5.70
2022-08-05T05:23:26.373Z,5.90
2022-08-05T05:25:54.051Z,6.00
2022-08-05T05:28:22.073Z,5.30
2022-08-05T05:30:52.668Z,5.90
2022-08-05T05:33:23.371Z,6.10
2022-08-05T05:35:51.907Z,5.50
2022-08-05T05:38:22.797Z,5.40
2022-08-05T05:40:57.071Z,5.20
2022-08-05T05:43:57.084Z,5.00
2022-08-05T05:46:17.221Z,6.60
2022-08-05T05:48:48.498Z,5.60
2022-08-05T05:51:24.207Z,5.80
2022-08-05T05:53:58.890Z,4.80
2022-08-05T05:56:32.585Z,4.90
2022-08-05T05:59:05.484Z,4.90
2022-08-05T06:01:40.036Z,5.10
2022-08-05T06:04:12.188Z,4.80
2022-08-05T06:06:42.910Z,5.20
2022-08-05T06:09:17.513Z,5.30
2022-08-05T06:12:01.146Z,4.90
2022-08-05T06:14:31.635Z,5.20
2022-08-05T06:17:02.024Z,5.30
2022-08-05T06:19:57.029Z,6.10
2022-08-05T06:22:33.310Z,5.00
2022-08-05T06:25:59.695Z,5.40
2022-08-05T06:28:10.651Z,5.00
2022-08-05T06:30:39.312Z,5.70
2022-08-05T06:33:09.884Z,5.80
2022-08-05T06:36:07.227Z,5.20
2022-08-05T06:38:36.444Z,6.50
2022-08-05T06:41:07.822Z,5.50
2022-08-05T06:43:58.967Z,5.50
2022-08-05T06:46:30.437Z,5.90
2022-08-05T06:49:00.983Z,5.40
2022-08-05T06:51:30.885Z,6.40
2022-08-05T06:54:00.517Z,6.20
2022-08-05T06:56:34.237Z,6.40
2022-08-05T06:59:09.554Z,6.00
2022-08-05T07:01:40.699Z,6.10
2022-08-05T07:04:10.756Z,6.20
2022-08-05T07:06:42.243Z,5.30
2022-08-05T07:09:10.054Z,5.20
2022-08-05T07:11:39.824Z,5.50
2022-08-05T07:14:30.079Z,6.00
2022-08-05T07:17:59.792Z,4.90
2022-08-05T07:20:31.410Z,4.80
2022-08-05T07:22:41.938Z,4.90
2022-08-05T07:25:54.489Z,5.20
2022-08-05T07:28:05.797Z,4.60
2022-08-05T07:30:39.550Z,5.00
2022-08-05T07:33:16.388Z,4.90
2022-08-05T07:36:04.783Z,5.10
2022-08-05T07:38:43.280Z,4.80
2022-08-05T07:42:14.223Z,5.00
2022-08-05T07:44:14.061Z,4.40
2022-08-05T07:46:49.413Z,4.60
2022-08-05T07:49:19.567Z,4.80
2022-08-05T07:51:53.120Z,4.40
2022-08-05T07:54:30.773Z,4.20
2022-08-05T07:57:17.748Z,4.60
2022-08-05T07:59:51.992Z,4.70
2022-08-05T08:02:26.757Z,4.80
2022-08-05T08:04:59.582Z,5.00
2022-08-05T08:07:28.944Z,4.80
2022-08-05T08:10:07.625Z,4.90
2022-08-05T08:12:49.236Z,5.20
2022-08-05T08:15:17.949Z,4.70
2022-08-05T08:18:13.682Z,5.10
2022-08-05T08:21:02.343Z,5.10
2022-08-05T08:24:01.969Z,4.90
2022-08-05T08:26:26.879Z,5.90
2022-08-05T08:29:21.934Z,5.30
2022-08-05T08:31:49.842Z,5.00
2022-08-05T08:34:30.236Z,4.80
2022-08-05T08:37:03.258Z,4.70
2022-08-05T08:39:37.204Z,5.20
2022-08-05T08:42:32.545Z,4.70
2022-08-05T08:45:23.974Z,4.70
2022-08-05T08:48:10.743Z,4.60
2022-08-05T08:51:03.251Z,5.40
2022-08-05T08:53:31.132Z,4.70
2022-08-05T08:56:05.601Z,5.30
2022-08-05T08:58:37.644Z,5.30
2022-08-05T09:01:16.241Z,5.00
2022-08-05T09:03:48.347Z,4.60
2022-08-05T09:06:28.216Z,5.20
2022-08-05T09:09:00.659Z,5.60
2022-08-05T09:11:51.473Z,5.10
2022-08-05T09:14:57.031Z,5.10
2022-08-05T09:17:41.170Z,5.20
2022-08-05T09:20:02.760Z,5.50
2022-08-05T09:23:09.016Z,4.90
2022-08-05T09:26:01.308Z,4.50
2022-08-05T09:28:34.530Z,4.10
2022-08-05T09:31:44.174Z,5.40
2022-08-05T09:33:59.163Z,5.50
2022-08-05T09:36:54.916Z,4.60
2022-08-05T09:39:41.148Z,4.60
2022-08-05T09:42:20.247Z,5.00
2022-08-05T09:44:56.401Z,4.80
2022-08-05T09:47:36.439Z,5.10
2022-08-05T09:50:38.081Z,4.10
2022-08-05T09:53:07.195Z,4.50
2022-08-05T09:55:58.237Z,4.60
2022-08-05T09:58:26.484Z,4.60
2022-08-05T10:01:13.374Z,4.10
2022-08-05T10:04:02.190Z,5.30
2022-08-05T10:06:32.237Z,4.10
2022-08-05T10:09:27.523Z,4.10
2022-08-05T10:12:30.238Z,4.30
2022-08-05T10:15:21.659Z,4.30
2022-08-05T10:18:08.802Z,4.50
2022-08-05T10:20:50.534Z,3.50
2022-08-05T10:23:55.277Z,4.00
2022-08-05T10:26:14.533Z,4.10
2022-08-05T10:28:45.087Z,9.90
2022-08-05T10:32:54.070Z,4.20
2022-08-05T10:34:07.109Z,3.60
2022-08-05T10:36:41.507Z,4.20
2022-08-05T10:39:24.252Z,4.50
2022-08-05T10:42:01.235Z,4.10
2022-08-05T10:44:31.545Z,3.70
2022-08-05T10:46:59.298Z,3.90
2022-08-05T10:49:33.316Z,4.00
2022-08-05T10:52:05.551Z,4.10
2022-08-05T10:55:03.040Z,3.50
2022-08-05T10:57:34.014Z,3.40
2022-08-05T11:00:18.509Z,3.40
2022-08-05T11:03:23.181Z,3.50
2022-08-05T11:06:04.275Z,3.40
2022-08-05T11:08:37.458Z,3.50
2022-08-05T11:11:44.657Z,3.40
2022-08-05T11:14:57.571Z,3.70
2022-08-05T11:18:00.417Z,3.40
2022-08-05T11:20:41.689Z,3.40
2022-08-05T11:24:04.819Z,3.70
2022-08-05T11:26:32.335Z,3.70
2022-08-05T11:29:13.746Z,3.70
2022-08-05T11:31:58.023Z,3.80
2022-08-05T11:34:47.413Z,3.80
2022-08-05T11:38:26.842Z,3.70
2022-08-05T11:41:35.123Z,3.50
2022-08-05T11:44:07.307Z,3.80
2022-08-05T11:46:58.697Z,3.40
2022-08-05T11:49:36.248Z,3.50
2022-08-05T11:52:08.424Z,3.40
2022-08-05T11:54:41.309Z,3.30
2022-08-05T11:57:24.244Z,3.60
2022-08-05T11:59:54.616Z,4.90
2022-08-05T12:02:33.451Z,3.30
2022-08-05T12:05:08.210Z,3.60
2022-08-05T12:08:04.394Z,3.00
2022-08-05T12:10:43.805Z,3.50
2022-08-05T12:13:17.218Z,3.30
2022-08-05T12:15:56.300Z,3.00
2022-08-05T12:18:38.890Z,2.80
2022-08-05T12:21:12.303Z,2.60
2022-08-05T12:23:43.232Z,3.70
2022-08-05T12:26:11.239Z,3.30
2022-08-05T12:28:39.203Z,3.20
2022-08-05T12:31:07.262Z,3.00
2022-08-05T12:33:36.376Z,3.30
2022-08-05T12:36:08.639Z,3.10
2022-08-05T12:38:39.891Z,3.10
2022-08-05T12:41:13.905Z,2.80
2022-08-05T12:43:57.350Z,2.90
2022-08-05T12:46:29.285Z,2.80
2022-08-05T12:49:00.512Z,3.50
2022-08-05T12:52:10.316Z,4.70
2022-08-05T12:54:23.229Z,3.00
2022-08-05T12:56:57.437Z,2.90
2022-08-05T13:01:58.500Z,3.40
2022-08-05T13:02:40.146Z,3.70
2022-08-05T13:05:12.664Z,3.90
2022-08-05T13:07:59.925Z,3.80
2022-08-05T13:10:33.238Z,3.60
2022-08-05T13:13:01.017Z,3.60
2022-08-05T13:15:35.906Z,3.30
2022-08-05T13:18:19.440Z,3.60
2022-08-05T13:20:49.807Z,3.50
2022-08-05T13:23:22.642Z,3.50
2022-08-05T13:25:58.973Z,3.50
2022-08-05T13:28:28.566Z,3.30
2022-08-05T13:30:57.226Z,3.50
2022-08-05T13:34:22.239Z,2.70
2022-08-05T13:36:14.539Z,3.70
2022-08-05T13:38:43.243Z,3.30
2022-08-05T13:41:11.755Z,3.30
2022-08-05T13:43:45.924Z,3.10
2022-08-05T13:46:43.893Z,3.10
2022-08-05T13:49:12.874Z,3.80
2022-08-05T13:51:46.254Z,3.40
2022-08-05T13:54:16.659Z,3.10
2022-08-05T13:56:51.428Z,3.60
2022-08-05T13:59:24.603Z,3.50
2022-08-05T14:01:58.361Z,3.20
2022-08-05T14:04:49.738Z,3.20
2022-08-05T14:07:56.223Z,2.90
2022-08-05T14:10:18.678Z,3.30
2022-08-05T14:12:48.862Z,3.20
2022-08-05T14:16:05.218Z,2.80
2022-08-05T14:18:06.002Z,3.80
2022-08-05T14:20:43.334Z,3.10
2022-08-05T14:23:24.763Z,3.90
2022-08-05T14:25:57.937Z,3.90
2022-08-05T14:28:29.726Z,3.10
2022-08-05T14:30:59.656Z,3.20
2022-08-05T14:33:57.043Z,3.30
2022-08-05T14:36:21.444Z,3.10
2022-08-05T14:38:51.227Z,3.60
2022-08-05T14:41:19.400Z,3.10
2022-08-05T14:44:02.361Z,3.30
2022-08-05T14:46:35.527Z,3.10
2022-08-05T14:49:07.277Z,3.50
2022-08-05T14:51:42.403Z,3.40
2022-08-05T14:54:28.122Z,3.20
2022-08-05T14:56:59.188Z,3.30
2022-08-05T14:59:29.717Z,3.70
2022-08-05T15:02:15.050Z,3.80
2022-08-05T15:04:47.756Z,3.00
2022-08-05T15:08:05.698Z,3.40
2022-08-05T15:10:09.525Z,3.20
2022-08-05T15:12:59.717Z,3.60
2022-08-05T15:15:55.552Z,3.30
2022-08-05T15:18:17.233Z,3.40
2022-08-05T15:20:45.997Z,3.30
2022-08-05T15:23:14.375Z,3.00
2022-08-05T15:25:53.861Z,3.40
2022-08-05T15:28:27.272Z,3.20
2022-08-05T15:30:56.638Z,3.10
2022-08-05T15:34:18.892Z,3.20
2022-08-05T15:36:17.267Z,3.50
2022-08-05T15:40:41.395Z,3.10
2022-08-05T15:41:57.591Z,3.80
2022-08-05T15:44:30.292Z,3.00
2022-08-05T15:47:01.113Z,2.90
2022-08-05T15:49:48.229Z,3.80
2022-08-05T15:52:52.070Z,3.30
2022-08-05T15:55:16.268Z,3.30
2022-08-05T15:57:45.131Z,3.10
2022-08-05T16:00:16.650Z,3.60
2022-08-05T16:02:44.873Z,3.00
2022-08-05T16:05:13.281Z,3.60
2022-08-05T16:07:46.276Z,4.00
2022-08-05T16:10:14.635Z,4.10
2022-08-05T16:12:42.663Z,4.60
2022-08-05T16:15:10.653Z,5.30
2022-08-05T16:17:57.418Z,6.10
2022-08-05T16:20:26.200Z,7.20
2022-08-05T16:22:56.068Z,6.90
2022-08-05T16:25:32.352Z,5.70
2022-08-05T16:28:06.568Z,6.90
2022-08-05T16:30:37.965Z,7.00
2022-08-05T16:33:05.687Z,6.60
2022-08-05T16:35:41.991Z,6.90
2022-08-05T16:38:23.731Z,7.60
2022-08-05T16:40:59.630Z,6.20
2022-08-05T16:43:32.099Z,6.50
2022-08-05T16:46:04.279Z,7.30
2022-08-05T16:48:38.796Z,6.00
2022-08-05T16:51:09.009Z,5.80
2022-08-05T16:54:03.948Z,5.70
2022-08-05T16:56:30.349Z,4.50
2022-08-05T16:58:58.877Z,5.00
2022-08-05T17:01:52.564Z,4.60
2022-08-05T17:04:17.034Z,3.90
2022-08-05T17:06:53.500Z,3.70
2022-08-05T17:09:23.154Z,4.00
2022-08-05T17:11:56.119Z,4.00
2022-08-05T17:14:36.820Z,3.80
2022-08-05T17:17:14.162Z,3.90
2022-08-05T17:19:46.058Z,4.00
2022-08-05T17:22:24.754Z,3.90
2022-08-05T17:24:58.683Z,3.90
2022-08-05T17:27:33.541Z,3.90
2022-08-05T17:30:12.179Z,3.60
2022-08-05T17:32:47.196Z,3.20
2022-08-05T17:35:15.876Z,3.50
2022-08-05T17:37:49.259Z,3.40
2022-08-05T17:40:22.699Z,3.60
2022-08-05T17:42:52.014Z,3.90
2022-08-05T17:45:25.033Z,3.70
2022-08-05T17:47:58.189Z,3.80
2022-08-05T17:50:30.539Z,4.10
2022-08-05T17:53:01.425Z,5.30
2022-08-05T17:55:37.638Z,8.40
2022-08-05T17:58:09.683Z,3.90
2022-08-05T18:00:44.687Z,4.10
2022-08-05T18:06:12.075Z,3.70
2022-08-05T18:08:45.734Z,3.90
2022-08-05T18:11:24.293Z,4.60
2022-08-05T18:14:03.679Z,3.80
2022-08-05T18:16:33.600Z,4.30
2022-08-05T18:19:03.051Z,4.00
2022-08-05T18:22:09.353Z,4.00
2022-08-05T18:24:19.103Z,4.90
2022-08-05T18:26:48.933Z,4.20
2022-08-05T18:29:16.876Z,5.70
2022-08-05T18:31:45.045Z,4.30
2022-08-05T18:34:12.976Z,4.50
2022-08-05T18:36:43.692Z,4.40
2022-08-05T18:39:22.423Z,5.70
2022-08-05T18:42:06.040Z,6.90
2022-08-05T18:44:55.516Z,4.90
2022-08-05T18:47:26.634Z,8.00
2022-08-05T18:50:15.509Z,6.70
2022-08-05T18:52:50.794Z,6.50
2022-08-05T18:55:21.737Z,4.90
2022-08-05T18:57:53.350Z,4.10
2022-08-05T19:00:27.182Z,4.70
2022-08-05T19:03:04.251Z,3.50
2022-08-05T19:06:12.600Z,4.40
2022-08-05T19:08:30.809Z,4.10
2022-08-05T19:11:02.807Z,4.20
2022-08-05T19:13:35.682Z,4.00
2022-08-05T19:16:22.202Z,3.80
2022-08-05T19:18:56.792Z,3.70
2022-08-05T19:21:27.395Z,4.10
2022-08-05T19:24:05.399Z,4.50
2022-08-05T19:26:54.638Z,4.20
2022-08-05T19:29:36.401Z,3.90
2022-08-05T19:32:11.179Z,4.10
2022-08-05T19:34:39.896Z,4.50
2022-08-05T19:37:10.095Z,4.10
2022-08-05T19:39:45.837Z,4.00
2022-08-05T19:42:36.132Z,4.10
2022-08-05T19:45:06.462Z,3.90
2022-08-05T19:47:37.170Z,3.90
2022-08-05T19:50:07.869Z,4.00
2022-08-05T19:52:40.023Z,4.60
2022-08-05T19:56:15.367Z,4.70
2022-08-05T19:58:04.067Z,3.80
2022-08-05T20:00:44.564Z,3.90
2022-08-05T20:03:12.374Z,4.10
2022-08-05T20:05:50.333Z,3.50
2022-08-05T20:08:20.034Z,4.00
2022-08-05T20:10:49.688Z,7.80
2022-08-05T20:13:30.087Z,4.10
2022-08-05T20:16:06.954Z,4.30
2022-08-05T20:18:35.995Z,4.40
2022-08-05T20:21:06.612Z,4.30
2022-08-05T20:23:39.928Z,4.20
2022-08-05T20:26:21.797Z,4.20
2022-08-05T20:28:55.783Z,4.40
2022-08-05T20:31:36.924Z,3.80
2022-08-05T20:34:12.527Z,4.10
2022-08-05T20:36:43.188Z,4.20
2022-08-05T20:39:16.798Z,5.20
2022-08-05T20:41:47.926Z,4.10
2022-08-05T20:44:30.697Z,4.30
2022-08-05T20:47:01.619Z,4.50
2022-08-05T20:49:37.913Z,4.80
2022-08-05T20:52:10.811Z,5.10
2022-08-05T20:54:43.127Z,5.00
2022-08-05T20:57:24.406Z,5.40
2022-08-05T21:00:40.764Z,4.90
2022-08-05T21:03:06.374Z,5.00
2022-08-05T21:05:47.690Z,5.00
2022-08-05T21:08:31.715Z,5.00
2022-08-05T21:11:09.106Z,5.20
2022-08-05T21:13:56.274Z,4.90
2022-08-05T21:16:29.462Z,5.10
2022-08-05T21:19:01.146Z,4.70
2022-08-05T21:21:39.554Z,5.00
2022-08-05T21:24:15.346Z,5.90
2022-08-05T21:26:50.532Z,5.50
2022-08-05T21:29:26.442Z,5.10
2022-08-05T21:32:03.094Z,6.10
2022-08-05T21:34:31.723Z,5.70
2022-08-05T21:37:00.793Z,5.00
2022-08-05T21:39:30.212Z,5.00
2022-08-05T21:42:02.602Z,5.00
2022-08-05T21:44:31.944Z,5.40
2022-08-05T21:47:00.335Z,5.50
2022-08-05T21:49:48.051Z,4.90
2022-08-05T21:52:27.252Z,5.70
2022-08-05T21:54:57.045Z,5.10
2022-08-05T21:57:32.702Z,5.30
2022-08-05T22:00:06.251Z,5.50
2022-08-05T22:02:34.712Z,5.30
2022-08-05T22:05:04.611Z,5.50
2022-08-05T22:07:39.773Z,5.60
2022-08-05T22:10:27.203Z,5.40
2022-08-05T22:12:59.165Z,4.80
2022-08-05T22:16:01.623Z,5.20
2022-08-05T22:18:25.850Z,4.90
2022-08-05T22:20:54.466Z,5.20
2022-08-05T22:24:01.900Z,5.70
2022-08-05T22:26:50.760Z,6.00
2022-08-05T22:29:26.161Z,6.00
2022-08-05T22:31:55.201Z,5.30
2022-08-05T22:34:32.760Z,5.50
2022-08-05T22:37:03.825Z,5.20
2022-08-05T22:39:34.707Z,5.90
2022-08-05T22:42:09.739Z,5.60
2022-08-05T22:44:48.450Z,5.40
2022-08-05T22:47:29.933Z,5.70
2022-08-05T22:50:23.134Z,6.20
2022-08-05T22:52:51.536Z,5.60
2022-08-05T22:55:23.087Z,5.40
2022-08-05T22:57:52.653Z,5.00
2022-08-05T23:00:22.580Z,5.00
2022-08-05T23:02:53.434Z,5.00
2022-08-05T23:05:22.932Z,5.20
2022-08-05T23:07:51.812Z,5.40
2022-08-05T23:10:23.601Z,5.50
2022-08-05T23:12:55.232Z,5.50
2022-08-05T23:15:28.953Z,5.80
2022-08-05T23:18:01.069Z,6.40
2022-08-05T23:20:33.013Z,5.50
2022-08-05T23:23:03.452Z,5.00
2022-08-05T23:25:53.687Z,5.00
2022-08-05T23:28:19.280Z,5.30
2022-08-05T23:30:53.184Z,5.10
2022-08-05T23:33:26.131Z,4.70
2022-08-05T23:36:13.737Z,5.10
2022-08-05T23:38:43.631Z,4.60
2022-08-05T23:41:11.799Z,5.10
2022-08-05T23:44:06.403Z,5.00
2022-08-05T23:46:29.687Z,5.10
2022-08-05T23:49:00.305Z,4.70
2022-08-05T23:51:53.467Z,5.20
2022-08-05T23:54:25.982Z,5.50
2022-08-05T23:57:03.286Z,4.90
